sensor_id;sensor_type;location;lat;lon;timestamp;pressure;altitude;pressure_sealevel;temperature;humidity
9281;BME280;4679;47.966;7.958;2023-02-22T07:06:55;96902.59;;;2.10;71.45
9281;BME280;4679;47.966;7.958;2023-02-22T07:08:57;96900.34;;;2.14;72.12
9281;BME280;4679;47.966;7.958;2023-02-22T07:10:58;96891.75;;;2.20;71.71
9281;BME280;4679;47.966;7.958;2023-02-22T07:13:01;96900.00;;;2.24;72.13
9281;BME280;4679;47.966;7.958;2023-02-22T07:15:03;96904.63;;;2.22;71.89
9281;BME280;4679;47.966;7.958;2023-02-22T07:17:05;96904.44;;;2.23;71.77
9281;BME280;4679;47.966;7.958;2023-02-22T07:19:07;96903.25;;;2.26;71.64
9281;BME280;4679;47.966;7.958;2023-02-22T07:21:08;96906.06;;;2.31;72.26
9281;BME280;4679;47.966;7.958;2023-02-22T07:23:13;96904.66;;;2.35;71.60
9281;BME280;4679;47.966;7.958;2023-02-22T07:25:15;96902.88;;;2.42;71.84
9281;BME280;4679;47.966;7.958;2023-02-22T07:27:17;96907.75;;;2.52;71.95
9281;BME280;4679;47.966;7.958;2023-02-22T07:29:19;96905.34;;;2.57;72.04
9281;BME280;4679;47.966;7.958;2023-02-22T07:31:22;96902.91;;;2.62;71.20
9281;BME280;4679;47.966;7.958;2023-02-22T07:33:23;96905.94;;;2.65;71.75
9281;BME280;4679;47.966;7.958;2023-02-22T07:35:28;96907.19;;;2.69;71.55
9281;BME280;4679;47.966;7.958;2023-02-22T07:37:30;96913.63;;;2.80;71.66
9281;BME280;4679;47.966;7.958;2023-02-22T07:39:33;96902.38;;;2.86;71.37
9281;BME280;4679;47.966;7.958;2023-02-22T07:41:34;96912.44;;;2.96;71.50
9281;BME280;4679;47.966;7.958;2023-02-22T07:43:36;96912.25;;;3.04;71.27
9281;BME280;4679;47.966;7.958;2023-02-22T07:45:38;96905.00;;;3.12;71.23
9281;BME280;4679;47.966;7.958;2023-02-22T07:47:39;96900.75;;;3.25;70.97
9281;BME280;4679;47.966;7.958;2023-02-22T07:49:41;96901.38;;;3.33;70.97
9281;BME280;4679;47.966;7.958;2023-02-22T07:51:43;96904.16;;;3.38;70.65
9281;BME280;4679;47.966;7.958;2023-02-22T07:53:45;96906.00;;;3.44;70.66
9281;BME280;4679;47.966;7.958;2023-02-22T07:55:48;96907.81;;;3.50;70.61
9281;BME280;4679;47.966;7.958;2023-02-22T07:57:52;96902.53;;;3.57;70.53
9281;BME280;4679;47.966;7.958;2023-02-22T07:59:53;96897.09;;;3.65;70.29
9281;BME280;4679;47.966;7.958;2023-02-22T08:01:55;96909.78;;;3.75;70.30
9281;BME280;4679;47.966;7.958;2023-02-22T08:03:57;96904.69;;;3.86;70.12
9281;BME280;4679;47.966;7.958;2023-02-22T08:05:58;96899.22;;;3.95;70.60
9281;BME280;4679;47.966;7.958;2023-02-22T08:08:02;96898.38;;;4.07;69.97
9281;BME280;4679;47.966;7.958;2023-02-22T08:10:06;96897.72;;;4.18;69.96
9281;BME280;4679;47.966;7.958;2023-02-22T08:12:10;96896.47;;;4.28;69.34
9281;BME280;4679;47.966;7.958;2023-02-22T08:14:14;96892.38;;;4.38;69.73
9281;BME280;4679;47.966;7.958;2023-02-22T08:16:16;96891.28;;;4.52;69.78
9281;BME280;4679;47.966;7.958;2023-02-22T08:18:18;96886.75;;;4.66;69.27
9281;BME280;4679;47.966;7.958;2023-02-22T08:20:21;96884.03;;;4.79;69.47
9281;BME280;4679;47.966;7.958;2023-02-22T08:22:23;96889.22;;;4.92;69.03
9281;BME280;4679;47.966;7.958;2023-02-22T08:24:26;96883.84;;;5.06;69.06
9281;BME280;4679;47.966;7.958;2023-02-22T08:26:28;96866.38;;;5.18;68.93
9281;BME280;4679;47.966;7.958;2023-02-22T08:28:31;96881.63;;;5.34;68.87
9281;BME280;4679;47.966;7.958;2023-02-22T08:30:35;96876.34;;;5.52;67.93
9281;BME280;4679;47.966;7.958;2023-02-22T08:32:37;96870.47;;;5.75;67.82
9281;BME280;4679;47.966;7.958;2023-02-22T08:34:38;96875.56;;;5.95;68.11
9281;BME280;4679;47.966;7.958;2023-02-22T08:36:40;96866.59;;;6.14;67.33
9281;BME280;4679;47.966;7.958;2023-02-22T08:38:42;96873.91;;;6.30;66.38
9281;BME280;4679;47.966;7.958;2023-02-22T08:40:44;96871.81;;;6.51;66.62
9281;BME280;4679;47.966;7.958;2023-02-22T08:42:46;96864.31;;;6.66;66.55
9281;BME280;4679;47.966;7.958;2023-02-22T08:44:49;96867.91;;;6.83;66.13
9281;BME280;4679;47.966;7.958;2023-02-22T08:46:50;96870.00;;;7.04;65.96
9281;BME280;4679;47.966;7.958;2023-02-22T08:48:52;96862.34;;;7.15;66.33
9281;BME280;4679;47.966;7.958;2023-02-22T08:50:54;96867.84;;;7.25;65.73
9281;BME280;4679;47.966;7.958;2023-02-22T08:52:57;96873.94;;;7.49;65.83
9281;BME280;4679;47.966;7.958;2023-02-22T08:54:59;96868.44;;;7.73;65.21
9281;BME280;4679;47.966;7.958;2023-02-22T08:57:01;96869.31;;;7.91;65.32
9281;BME280;4679;47.966;7.958;2023-02-22T08:59:03;96876.53;;;8.07;65.12
9281;BME280;4679;47.966;7.958;2023-02-22T09:01:06;96865.94;;;8.19;64.63
9281;BME280;4679;47.966;7.958;2023-02-22T09:03:11;96872.22;;;8.29;64.01
9281;BME280;4679;47.966;7.958;2023-02-22T09:05:13;96872.75;;;8.43;64.21
9281;BME280;4679;47.966;7.958;2023-02-22T09:07:16;96873.78;;;8.54;63.96
9281;BME280;4679;47.966;7.958;2023-02-22T09:09:19;96879.00;;;8.65;63.79
9281;BME280;4679;47.966;7.958;2023-02-22T09:11:21;96868.03;;;8.73;63.55
9281;BME280;4679;47.966;7.958;2023-02-22T09:13:22;96872.16;;;8.81;63.62
9281;BME280;4679;47.966;7.958;2023-02-22T09:15:24;96867.50;;;8.88;63.01
9281;BME280;4679;47.966;7.958;2023-02-22T09:17:27;96865.03;;;8.98;63.47
9281;BME280;4679;47.966;7.958;2023-02-22T09:19:29;96868.50;;;9.15;62.90
9281;BME280;4679;47.966;7.958;2023-02-22T09:21:31;96863.13;;;9.27;62.45
9281;BME280;4679;47.966;7.958;2023-02-22T09:23:33;96863.75;;;9.34;62.64
9281;BME280;4679;47.966;7.958;2023-02-22T09:25:35;96865.28;;;9.47;62.36
9281;BME280;4679;47.966;7.958;2023-02-22T09:27:38;96864.13;;;9.60;62.58
9281;BME280;4679;47.966;7.958;2023-02-22T09:29:41;96866.13;;;9.69;62.50
9281;BME280;4679;47.966;7.958;2023-02-22T09:31:42;96859.91;;;9.80;61.54
9281;BME280;4679;47.966;7.958;2023-02-22T09:33:45;96868.00;;;9.91;61.94
9281;BME280;4679;47.966;7.958;2023-02-22T09:35:48;96871.09;;;10.04;61.74
9281;BME280;4679;47.966;7.958;2023-02-22T09:37:50;96858.53;;;10.16;61.03
9281;BME280;4679;47.966;7.958;2023-02-22T09:39:52;96859.03;;;10.35;61.61
9281;BME280;4679;47.966;7.958;2023-02-22T09:42:01;96857.84;;;10.48;60.73
9281;BME280;4679;47.966;7.958;2023-02-22T09:44:12;96858.00;;;10.63;59.84
9281;BME280;4679;47.966;7.958;2023-02-22T09:46:26;96851.06;;;10.84;60.25
9281;BME280;4679;47.966;7.958;2023-02-22T09:48:33;96860.16;;;10.93;60.32
9281;BME280;4679;47.966;7.958;2023-02-22T09:50:40;96855.97;;;11.02;59.35
9281;BME280;4679;47.966;7.958;2023-02-22T09:52:51;96859.00;;;11.11;59.53
9281;BME280;4679;47.966;7.958;2023-02-22T09:55:01;96847.09;;;11.18;60.19
9281;BME280;4679;47.966;7.958;2023-02-22T09:57:10;96850.66;;;11.29;59.36
9281;BME280;4679;47.966;7.958;2023-02-22T09:59:21;96853.06;;;11.36;59.62
9281;BME280;4679;47.966;7.958;2023-02-22T10:01:29;96849.91;;;11.39;59.03
9281;BME280;4679;47.966;7.958;2023-02-22T10:03:35;96851.81;;;11.43;59.37
9281;BME280;4679;47.966;7.958;2023-02-22T10:05:44;96851.56;;;11.50;59.34
9281;BME280;4679;47.966;7.958;2023-02-22T10:07:53;96849.75;;;11.55;58.61
9281;BME280;4679;47.966;7.958;2023-02-22T10:09:56;96854.88;;;11.67;59.09
9281;BME280;4679;47.966;7.958;2023-02-22T10:12:03;96853.66;;;11.80;59.00
9281;BME280;4679;47.966;7.958;2023-02-22T10:14:26;96844.13;;;11.89;57.89
9281;BME280;4679;47.966;7.958;2023-02-22T10:16:35;96850.00;;;11.96;58.92
9281;BME280;4679;47.966;7.958;2023-02-22T10:18:53;96843.41;;;12.04;57.60
9281;BME280;4679;47.966;7.958;2023-02-22T10:21:06;96840.31;;;12.27;58.19
9281;BME280;4679;47.966;7.958;2023-02-22T10:23:18;96835.31;;;12.56;57.44
9281;BME280;4679;47.966;7.958;2023-02-22T10:25:27;96838.28;;;12.69;57.41
9281;BME280;4679;47.966;7.958;2023-02-22T10:27:37;96838.81;;;12.72;57.48
9281;BME280;4679;47.966;7.958;2023-02-22T10:29:42;96837.78;;;12.67;57.31
9281;BME280;4679;47.966;7.958;2023-02-22T10:31:50;96835.09;;;12.62;57.56
9281;BME280;4679;47.966;7.958;2023-02-22T10:33:56;96833.47;;;12.61;57.25
9281;BME280;4679;47.966;7.958;2023-02-22T10:35:59;96839.34;;;12.58;57.50
9281;BME280;4679;47.966;7.958;2023-02-22T10:38:12;96839.31;;;12.53;57.66
9281;BME280;4679;47.966;7.958;2023-02-22T10:40:17;96835.88;;;12.58;57.94
9281;BME280;4679;47.966;7.958;2023-02-22T10:42:25;96834.81;;;12.64;57.35
9281;BME280;4679;47.966;7.958;2023-02-22T10:44:27;96829.50;;;12.69;58.22
9281;BME280;4679;47.966;7.958;2023-02-22T10:46:30;96826.59;;;12.76;57.43
9281;BME280;4679;47.966;7.958;2023-02-22T10:48:36;96825.25;;;12.83;57.73
9281;BME280;4679;47.966;7.958;2023-02-22T10:50:41;96822.09;;;12.96;56.94
9281;BME280;4679;47.966;7.958;2023-02-22T10:52:43;96817.84;;;13.11;57.43
9281;BME280;4679;47.966;7.958;2023-02-22T10:54:49;96828.50;;;13.26;56.88
9281;BME280;4679;47.966;7.958;2023-02-22T10:56:53;96822.09;;;13.32;57.29
9281;BME280;4679;47.966;7.958;2023-02-22T10:58:58;96820.25;;;13.37;57.26
9281;BME280;4679;47.966;7.958;2023-02-22T11:01:16;96822.06;;;13.47;57.01
9281;BME280;4679;47.966;7.958;2023-02-22T11:03:20;96817.00;;;13.46;57.28
9281;BME280;4679;47.966;7.958;2023-02-22T11:05:31;96809.81;;;13.46;57.33
9281;BME280;4679;47.966;7.958;2023-02-22T11:07:36;96815.16;;;13.51;57.25
9281;BME280;4679;47.966;7.958;2023-02-22T11:09:50;96811.41;;;13.47;57.41
9281;BME280;4679;47.966;7.958;2023-02-22T11:12:08;96809.56;;;13.48;57.43
9281;BME280;4679;47.966;7.958;2023-02-22T11:14:10;96802.34;;;13.48;57.49
9281;BME280;4679;47.966;7.958;2023-02-22T11:16:22;96804.19;;;13.68;57.24
9281;BME280;4679;47.966;7.958;2023-02-22T11:18:30;96802.00;;;13.80;57.26
9281;BME280;4679;47.966;7.958;2023-02-22T11:20:36;96796.66;;;13.85;57.16
9281;BME280;4679;47.966;7.958;2023-02-22T11:22:40;96796.09;;;13.93;57.17
9281;BME280;4679;47.966;7.958;2023-02-22T11:24:45;96800.34;;;13.99;57.44
9281;BME280;4679;47.966;7.958;2023-02-22T11:26:53;96792.63;;;14.03;57.10
9281;BME280;4679;47.966;7.958;2023-02-22T11:28:55;96789.41;;;14.01;56.90
9281;BME280;4679;47.966;7.958;2023-02-22T11:31:08;96799.53;;;14.04;57.09
9281;BME280;4679;47.966;7.958;2023-02-22T11:33:17;96786.44;;;14.07;57.23
9281;BME280;4679;47.966;7.958;2023-02-22T11:35:47;96787.47;;;14.17;56.80
9281;BME280;4679;47.966;7.958;2023-02-22T11:37:51;96785.34;;;14.19;56.53
9281;BME280;4679;47.966;7.958;2023-02-22T11:40:05;96790.09;;;14.22;57.11
9281;BME280;4679;47.966;7.958;2023-02-22T11:42:19;96784.22;;;14.25;57.01
9281;BME280;4679;47.966;7.958;2023-02-22T11:44:24;96780.72;;;14.29;57.29
9281;BME280;4679;47.966;7.958;2023-02-22T11:46:30;96780.72;;;14.29;56.82
9281;BME280;4679;47.966;7.958;2023-02-22T11:48:34;96771.41;;;14.27;56.65
9281;BME280;4679;47.966;7.958;2023-02-22T11:50:43;96778.06;;;14.29;56.56
9281;BME280;4679;47.966;7.958;2023-02-22T11:52:49;96779.41;;;14.32;56.64
9281;BME280;4679;47.966;7.958;2023-02-22T11:55:07;96774.81;;;14.37;56.76
9281;BME280;4679;47.966;7.958;2023-02-22T11:57:31;96763.63;;;14.35;56.83
9281;BME280;4679;47.966;7.958;2023-02-22T11:59:39;96768.66;;;14.37;56.75
9281;BME280;4679;47.966;7.958;2023-02-22T12:01:47;96767.06;;;14.46;56.74
9281;BME280;4679;47.966;7.958;2023-02-22T12:06:50;96764.56;;;14.60;55.89
9281;BME280;4679;47.966;7.958;2023-02-22T12:09:07;96765.72;;;14.49;56.53
9281;BME280;4679;47.966;7.958;2023-02-22T12:11:19;96764.94;;;14.38;56.63
9281;BME280;4679;47.966;7.958;2023-02-22T12:13:36;96762.84;;;14.35;56.37
9281;BME280;4679;47.966;7.958;2023-02-22T12:15:46;96765.00;;;14.23;56.68
9281;BME280;4679;47.966;7.958;2023-02-22T12:17:56;96766.66;;;14.14;56.69
9281;BME280;4679;47.966;7.958;2023-02-22T12:20:03;96757.66;;;14.04;56.96
9281;BME280;4679;47.966;7.958;2023-02-22T12:22:12;96761.94;;;14.00;57.19
9281;BME280;4679;47.966;7.958;2023-02-22T12:24:20;96757.41;;;13.96;57.13
9281;BME280;4679;47.966;7.958;2023-02-22T12:26:25;96765.97;;;13.93;57.16
9281;BME280;4679;47.966;7.958;2023-02-22T12:28:33;96764.34;;;13.92;57.23
9281;BME280;4679;47.966;7.958;2023-02-22T12:30:40;96762.50;;;13.92;57.16
9281;BME280;4679;47.966;7.958;2023-02-22T12:32:47;96758.75;;;13.93;57.44
9281;BME280;4679;47.966;7.958;2023-02-22T12:34:53;96764.34;;;13.97;57.38
9281;BME280;4679;47.966;7.958;2023-02-22T12:37:02;96754.72;;;14.01;57.17
9281;BME280;4679;47.966;7.958;2023-02-22T12:39:23;96764.06;;;13.98;57.18
9281;BME280;4679;47.966;7.958;2023-02-22T12:41:32;96763.53;;;14.01;57.18
9281;BME280;4679;47.966;7.958;2023-02-22T12:43:38;96765.06;;;14.13;56.82
9281;BME280;4679;47.966;7.958;2023-02-22T12:45:44;96764.50;;;14.21;57.27
9281;BME280;4679;47.966;7.958;2023-02-22T12:47:52;96759.66;;;14.28;56.77
9281;BME280;4679;47.966;7.958;2023-02-22T12:50:02;96763.16;;;14.23;57.24
9281;BME280;4679;47.966;7.958;2023-02-22T12:52:11;96765.53;;;14.30;56.81
9281;BME280;4679;47.966;7.958;2023-02-22T12:54:21;96762.06;;;14.24;57.12
9281;BME280;4679;47.966;7.958;2023-02-22T12:56:30;96771.47;;;14.17;57.26
9281;BME280;4679;47.966;7.958;2023-02-22T12:58:39;96771.47;;;14.12;57.16
9281;BME280;4679;47.966;7.958;2023-02-22T13:00:49;96774.13;;;14.17;56.85
9281;BME280;4679;47.966;7.958;2023-02-22T13:02:58;96768.28;;;14.09;57.32
9281;BME280;4679;47.966;7.958;2023-02-22T13:05:01;96775.81;;;13.97;56.86
9281;BME280;4679;47.966;7.958;2023-02-22T13:07:27;96787.00;;;13.99;57.30
9281;BME280;4679;47.966;7.958;2023-02-22T13:09:50;96771.81;;;14.00;57.36
9281;BME280;4679;47.966;7.958;2023-02-22T13:11:57;96775.81;;;14.02;57.16
9281;BME280;4679;47.966;7.958;2023-02-22T13:14:15;96771.00;;;14.04;56.98
9281;BME280;4679;47.966;7.958;2023-02-22T13:16:30;96774.16;;;14.06;56.86
9281;BME280;4679;47.966;7.958;2023-02-22T13:18:41;96773.34;;;14.11;56.94
9281;BME280;4679;47.966;7.958;2023-02-22T13:20:51;96763.53;;;14.01;57.04
9281;BME280;4679;47.966;7.958;2023-02-22T13:22:59;96777.41;;;14.03;57.31
9281;BME280;4679;47.966;7.958;2023-02-22T13:25:09;96770.22;;;13.99;57.24
9281;BME280;4679;47.966;7.958;2023-02-22T13:27:18;96772.09;;;13.93;57.64
9281;BME280;4679;47.966;7.958;2023-02-22T13:29:26;96772.13;;;13.83;57.35
9281;BME280;4679;47.966;7.958;2023-02-22T13:31:50;96780.97;;;13.73;57.85
9281;BME280;4679;47.966;7.958;2023-02-22T13:34:11;96778.59;;;13.72;57.65
9281;BME280;4679;47.966;7.958;2023-02-22T13:36:34;96775.88;;;13.77;57.75
9281;BME280;4679;47.966;7.958;2023-02-22T13:38:58;96771.38;;;13.72;57.77
9281;BME280;4679;47.966;7.958;2023-02-22T13:41:44;96777.84;;;13.56;57.88
9281;BME280;4679;47.966;7.958;2023-02-22T13:44:15;96775.97;;;13.47;58.20
9281;BME280;4679;47.966;7.958;2023-02-22T13:46:53;96775.47;;;13.40;58.47
9281;BME280;4679;47.966;7.958;2023-02-22T13:49:22;96786.66;;;13.42;58.38
9281;BME280;4679;47.966;7.958;2023-02-22T13:51:47;96782.13;;;13.32;58.43
9281;BME280;4679;47.966;7.958;2023-02-22T13:53:53;96771.22;;;13.28;58.56
9281;BME280;4679;47.966;7.958;2023-02-22T13:55:59;96778.16;;;13.24;58.82
9281;BME280;4679;47.966;7.958;2023-02-22T13:58:03;96780.81;;;13.24;58.88
9281;BME280;4679;47.966;7.958;2023-02-22T14:00:21;96769.63;;;13.27;58.73
9281;BME280;4679;47.966;7.958;2023-02-22T14:02:33;96773.34;;;13.31;58.93
9281;BME280;4679;47.966;7.958;2023-02-22T14:04:54;96774.69;;;13.29;58.85
9281;BME280;4679;47.966;7.958;2023-02-22T14:06:57;96773.34;;;13.26;59.25
9281;BME280;4679;47.966;7.958;2023-02-22T14:09:00;96777.09;;;13.25;58.80
9281;BME280;4679;47.966;7.958;2023-02-22T14:14:09;96775.22;;;13.16;59.20
9281;BME280;4679;47.966;7.958;2023-02-22T14:16:20;96777.34;;;13.14;59.32
9281;BME280;4679;47.966;7.958;2023-02-22T14:18:25;96777.34;;;13.09;58.95
9281;BME280;4679;47.966;7.958;2023-02-22T14:20:29;96774.66;;;13.03;59.33
9281;BME280;4679;47.966;7.958;2023-02-22T14:22:33;96775.19;;;13.00;59.72
9281;BME280;4679;47.966;7.958;2023-02-22T14:24:41;96772.03;;;12.98;59.65
9281;BME280;4679;47.966;7.958;2023-02-22T14:26:54;96765.91;;;12.98;59.71
9281;BME280;4679;47.966;7.958;2023-02-22T14:28:58;96767.50;;;12.94;59.71
9281;BME280;4679;47.966;7.958;2023-02-22T14:31:06;96768.81;;;12.96;60.14
9281;BME280;4679;47.966;7.958;2023-02-22T14:35:44;96766.69;;;12.93;60.23
9281;BME280;4679;47.966;7.958;2023-02-22T14:37:49;96775.22;;;12.90;59.85
9281;BME280;4679;47.966;7.958;2023-02-22T14:39:57;96763.22;;;12.93;60.34
9281;BME280;4679;47.966;7.958;2023-02-22T14:42:15;96768.81;;;12.96;59.91
9281;BME280;4679;47.966;7.958;2023-02-22T14:44:24;96772.56;;;12.95;60.16
9281;BME280;4679;47.966;7.958;2023-02-22T14:46:28;96768.81;;;12.96;60.01
9281;BME280;4679;47.966;7.958;2023-02-22T14:48:35;96770.16;;;12.94;59.88
9281;BME280;4679;47.966;7.958;2023-02-22T14:50:44;96768.81;;;12.91;60.50
9281;BME280;4679;47.966;7.958;2023-02-22T14:52:58;96766.41;;;12.90;60.47
9281;BME280;4679;47.966;7.958;2023-02-22T14:55:06;96773.88;;;12.83;60.61
9281;BME280;4679;47.966;7.958;2023-02-22T14:57:19;96777.88;;;12.80;60.76
9281;BME280;4679;47.966;7.958;2023-02-22T14:59:25;96771.75;;;12.75;60.85
9281;BME280;4679;47.966;7.958;2023-02-22T15:01:29;96768.00;;;12.76;61.19
9281;BME280;4679;47.966;7.958;2023-02-22T15:03:33;96772.28;;;12.77;61.57
9281;BME280;4679;47.966;7.958;2023-02-22T15:05:36;96774.66;;;12.73;61.51
9281;BME280;4679;47.966;7.958;2023-02-22T15:07:38;96769.31;;;12.68;61.51
9281;BME280;4679;47.966;7.958;2023-02-22T15:09:42;96770.94;;;12.69;61.41
9281;BME280;4679;47.966;7.958;2023-02-22T15:11:45;96777.06;;;12.69;61.31
9281;BME280;4679;47.966;7.958;2023-02-22T15:13:49;96770.13;;;12.68;61.41
9281;BME280;4679;47.966;7.958;2023-02-22T15:15:54;96774.66;;;12.68;61.80
9281;BME280;4679;47.966;7.958;2023-02-22T15:17:57;96780.78;;;12.68;61.51
9281;BME280;4679;47.966;7.958;2023-02-22T15:19:59;96772.78;;;12.68;61.22
9281;BME280;4679;47.966;7.958;2023-02-22T15:22:01;96773.59;;;12.69;61.81
9281;BME280;4679;47.966;7.958;2023-02-22T15:24:04;96778.13;;;12.68;62.01
9281;BME280;4679;47.966;7.958;2023-02-22T15:26:15;96774.94;;;12.66;61.37
9281;BME280;4679;47.966;7.958;2023-02-22T15:28:17;96763.75;;;12.64;61.71
9281;BME280;4679;47.966;7.958;2023-02-22T15:30:23;96768.53;;;12.62;61.30
9281;BME280;4679;47.966;7.958;2023-02-22T15:32:29;96770.94;;;12.59;61.82
9281;BME280;4679;47.966;7.958;2023-02-22T15:34:32;96765.31;;;12.55;61.93
9281;BME280;4679;47.966;7.958;2023-02-22T15:36:33;96779.97;;;12.53;62.17
9281;BME280;4679;47.966;7.958;2023-02-22T15:38:37;96783.44;;;12.48;62.27
9281;BME280;4679;47.966;7.958;2023-02-22T15:40:39;96778.59;;;12.40;62.51
9281;BME280;4679;47.966;7.958;2023-02-22T15:42:47;96784.75;;;12.36;61.83
9281;BME280;4679;47.966;7.958;2023-02-22T15:44:51;96791.38;;;12.33;62.52
9281;BME280;4679;47.966;7.958;2023-02-22T15:46:54;96783.13;;;12.29;62.10
9281;BME280;4679;47.966;7.958;2023-02-22T15:49:07;96786.28;;;12.26;62.32
9281;BME280;4679;47.966;7.958;2023-02-22T15:51:19;96790.53;;;12.22;62.76
9281;BME280;4679;47.966;7.958;2023-02-22T15:53:25;96788.41;;;12.24;63.06
9281;BME280;4679;47.966;7.958;2023-02-22T15:55:29;96797.75;;;12.22;63.08
9281;BME280;4679;47.966;7.958;2023-02-22T15:57:33;96792.41;;;12.17;63.51
9281;BME280;4679;47.966;7.958;2023-02-22T15:59:43;96797.69;;;12.12;63.21
9281;BME280;4679;47.966;7.958;2023-02-22T16:01:48;96802.72;;;12.08;63.60
9281;BME280;4679;47.966;7.958;2023-02-22T16:03:53;96797.69;;;12.07;63.10
9281;BME280;4679;47.966;7.958;2023-02-22T16:05:57;96797.16;;;12.05;63.88
9281;BME280;4679;47.966;7.958;2023-02-22T16:07:59;96803.53;;;12.04;63.98
9281;BME280;4679;47.966;7.958;2023-02-22T16:10:01;96802.72;;;12.03;63.28
9281;BME280;4679;47.966;7.958;2023-02-22T16:12:20;96805.63;;;12.02;63.70
9281;BME280;4679;47.966;7.958;2023-02-22T16:14:25;96804.84;;;12.01;63.09
9281;BME280;4679;47.966;7.958;2023-02-22T16:16:30;96816.53;;;12.00;63.37
9281;BME280;4679;47.966;7.958;2023-02-22T16:18:34;96813.06;;;12.00;63.75
9281;BME280;4679;47.966;7.958;2023-02-22T16:20:36;96811.47;;;11.98;64.15
9281;BME280;4679;47.966;7.958;2023-02-22T16:22:39;96816.78;;;11.98;63.63
9281;BME280;4679;47.966;7.958;2023-02-22T16:24:48;96815.19;;;11.97;64.42
9281;BME280;4679;47.966;7.958;2023-02-22T16:27:20;96819.97;;;11.95;63.71
9281;BME280;4679;47.966;7.958;2023-02-22T16:29:25;96814.63;;;11.95;64.33
9281;BME280;4679;47.966;7.958;2023-02-22T16:31:30;96823.41;;;11.96;64.55
9281;BME280;4679;47.966;7.958;2023-02-22T16:33:32;96817.81;;;11.92;64.10
9281;BME280;4679;47.966;7.958;2023-02-22T16:35:34;96817.28;;;11.90;64.00
9281;BME280;4679;47.966;7.958;2023-02-22T16:37:36;96822.06;;;11.88;63.82
9281;BME280;4679;47.966;7.958;2023-02-22T16:39:37;96830.31;;;11.87;64.03
9281;BME280;4679;47.966;7.958;2023-02-22T16:41:39;96830.03;;;11.88;64.80
9281;BME280;4679;47.966;7.958;2023-02-22T16:43:42;96826.34;;;11.89;63.85
9281;BME280;4679;47.966;7.958;2023-02-22T16:45:45;96833.75;;;11.87;64.52
9281;BME280;4679;47.966;7.958;2023-02-22T16:47:48;96830.03;;;11.88;64.21
9281;BME280;4679;47.966;7.958;2023-02-22T16:49:52;96821.78;;;11.85;64.24
9281;BME280;4679;47.966;7.958;2023-02-22T16:51:58;96817.53;;;11.84;64.56
9281;BME280;4679;47.966;7.958;2023-02-22T16:54:01;96820.19;;;11.84;64.62
9281;BME280;4679;47.966;7.958;2023-02-22T16:56:04;96821.22;;;11.83;64.65
9281;BME280;4679;47.966;7.958;2023-02-22T16:58:09;96817.78;;;11.82;65.06
9281;BME280;4679;47.966;7.958;2023-02-22T17:00:14;96828.66;;;11.81;65.25
9281;BME280;4679;47.966;7.958;2023-02-22T17:02:17;96827.31;;;11.78;64.73
9281;BME280;4679;47.966;7.958;2023-02-22T17:04:22;96827.03;;;11.75;64.85
9281;BME280;4679;47.966;7.958;2023-02-22T17:06:25;96830.75;;;11.74;64.54
9281;BME280;4679;47.966;7.958;2023-02-22T17:08:28;96824.06;;;11.71;64.59
9281;BME280;4679;47.966;7.958;2023-02-22T17:10:30;96830.16;;;11.67;64.81
9281;BME280;4679;47.966;7.958;2023-02-22T17:12:32;96828.25;;;11.62;65.26
9281;BME280;4679;47.966;7.958;2023-02-22T17:14:34;96825.59;;;11.62;65.86
9281;BME280;4679;47.966;7.958;2023-02-22T17:16:36;96825.88;;;11.60;65.82
9281;BME280;4679;47.966;7.958;2023-02-22T17:18:38;96830.91;;;11.57;66.37
9281;BME280;4679;47.966;7.958;2023-02-22T17:20:41;96833.00;;;11.55;65.56
9281;BME280;4679;47.966;7.958;2023-02-22T17:22:44;96823.41;;;11.49;65.24
9281;BME280;4679;47.966;7.958;2023-02-22T17:24:46;96832.69;;;11.46;65.85
9281;BME280;4679;47.966;7.958;2023-02-22T17:26:48;96833.22;;;11.43;66.30
9281;BME280;4679;47.966;7.958;2023-02-22T17:28:51;96836.91;;;11.42;66.17
9281;BME280;4679;47.966;7.958;2023-02-22T17:30:54;96834.50;;;11.41;65.74
9281;BME280;4679;47.966;7.958;2023-02-22T17:33:01;96833.97;;;11.39;65.91
9281;BME280;4679;47.966;7.958;2023-02-22T17:35:04;96845.41;;;11.39;67.18
9281;BME280;4679;47.966;7.958;2023-02-22T17:37:07;96847.50;;;11.37;66.30
9281;BME280;4679;47.966;7.958;2023-02-22T17:39:09;96845.66;;;11.38;67.37
9281;BME280;4679;47.966;7.958;2023-02-22T17:41:10;96854.66;;;11.37;66.46
9281;BME280;4679;47.966;7.958;2023-02-22T17:43:13;96849.06;;;11.33;66.43
9281;BME280;4679;47.966;7.958;2023-02-22T17:45:15;96846.16;;;11.35;66.65
9281;BME280;4679;47.966;7.958;2023-02-22T17:47:16;96848.25;;;11.33;67.78
9281;BME280;4679;47.966;7.958;2023-02-22T17:49:18;96851.72;;;11.33;66.62
9281;BME280;4679;47.966;7.958;2023-02-22T17:51:21;96851.16;;;11.31;66.81
9281;BME280;4679;47.966;7.958;2023-02-22T17:53:25;96851.44;;;11.30;68.00
9281;BME280;4679;47.966;7.958;2023-02-22T17:55:26;96850.09;;;11.27;67.12
9281;BME280;4679;47.966;7.958;2023-02-22T17:57:28;96847.69;;;11.25;67.89
9281;BME280;4679;47.966;7.958;2023-02-22T17:59:30;96854.06;;;11.24;67.48
9281;BME280;4679;47.966;7.958;2023-02-22T18:01:31;96854.06;;;11.24;68.46
9281;BME280;4679;47.966;7.958;2023-02-22T18:03:33;96852.50;;;11.28;68.33
9281;BME280;4679;47.966;7.958;2023-02-22T18:05:41;96861.25;;;11.29;67.83
9281;BME280;4679;47.966;7.958;2023-02-22T18:07:44;96853.25;;;11.24;68.57
9281;BME280;4679;47.966;7.958;2023-02-22T18:09:47;96855.56;;;11.15;68.42
9281;BME280;4679;47.966;7.958;2023-02-22T18:11:49;96849.72;;;11.13;67.91
9281;BME280;4679;47.966;7.958;2023-02-22T18:13:51;96856.03;;;11.07;69.33
9281;BME280;4679;47.966;7.958;2023-02-22T18:15:55;96851.72;;;11.01;68.69
9281;BME280;4679;47.966;7.958;2023-02-22T18:17:59;96853.06;;;10.99;68.82
9281;BME280;4679;47.966;7.958;2023-02-22T18:20:00;96859.09;;;10.94;69.41
9281;BME280;4679;47.966;7.958;2023-02-22T18:22:02;96858.25;;;10.88;68.59
9281;BME280;4679;47.966;7.958;2023-02-22T18:24:07;96857.69;;;10.86;70.22
9281;BME280;4679;47.966;7.958;2023-02-22T18:26:14;96855.59;;;10.88;69.85
9281;BME280;4679;47.966;7.958;2023-02-22T18:28:17;96856.09;;;10.85;69.98
9281;BME280;4679;47.966;7.958;2023-02-22T18:30:19;96851.88;;;10.84;70.24
9281;BME280;4679;47.966;7.958;2023-02-22T18:32:21;96847.84;;;10.82;69.55
9281;BME280;4679;47.966;7.958;2023-02-22T18:34:23;96847.53;;;10.78;70.89
9281;BME280;4679;47.966;7.958;2023-02-22T18:36:24;96848.28;;;10.74;69.50
9281;BME280;4679;47.966;7.958;2023-02-22T18:38:26;96847.47;;;10.68;70.35
9281;BME280;4679;47.966;7.958;2023-02-22T18:40:28;96852.69;;;10.63;70.50
9281;BME280;4679;47.966;7.958;2023-02-22T18:42:31;96844.19;;;10.61;70.85
9281;BME280;4679;47.966;7.958;2023-02-22T18:44:32;96850.78;;;10.58;71.43